Time;durP1;ratioP1;P1;durP2;ratioP2;P2;SDS_P1;SDS_P2;PMS_P1;PMS_P2;Temp;Humidity;BMP_temperature;BMP_pressure;BME280_temperature;BME280_humidity;BME280_pressure;Samples;Min_cycle;Max_cycle;Signal;HPM_P1;HPM_P2
2023/02/22 00:01:00;;;;;;;7.17;3.80;;;11.00;99.90;;;11.34;63.38;101120.56;6128161;22;102380;-55
2023/02/22 00:03:31;;;;;;;8.20;3.13;;;10.90;99.90;;;11.37;62.99;101125.75;6125609;22;98313;-46
2023/02/22 00:06:01;;;;;;;9.30;4.47;;;10.90;99.90;;;11.24;63.32;101113.81;6131727;22;97463;-46
2023/02/22 00:08:36;;;;;;;6.27;2.83;;;10.80;99.90;;;11.27;64.76;101116.38;6125260;22;97424;-55
2023/02/22 00:11:07;;;;;;;6.00;3.57;;;10.80;99.90;;;11.42;64.44;101115.88;6127675;22;98209;-47
2023/02/22 00:13:34;;;;;;;9.07;3.87;;;10.90;99.90;;;11.46;63.63;101114.91;6112444;22;98236;-53
2023/02/22 00:16:01;;;;;;;8.57;3.60;;;11.00;99.90;;;11.53;63.11;101115.53;6132521;22;97727;-52
2023/02/22 00:18:28;;;;;;;17.07;3.77;;;11.00;99.90;;;11.58;63.48;101114.50;6131028;22;97606;-49
2023/02/22 00:21:01;;;;;;;10.03;4.47;;;11.10;99.90;;;11.56;62.78;101111.03;6127546;22;97984;-55
2023/02/22 00:23:29;;;;;;;13.03;4.00;;;11.10;99.90;;;11.61;62.26;101113.53;6131694;22;98492;-59
2023/02/22 00:25:58;;;;;;;7.83;4.10;;;11.10;99.90;;;11.61;62.57;101111.75;6134342;22;101653;-56
2023/02/22 00:28:24;;;;;;;5.90;2.87;;;11.10;99.90;;;11.68;63.35;101103.59;6105106;22;96923;-54
2023/02/22 00:30:51;;;;;;;6.50;2.60;;;11.10;99.90;;;11.69;63.22;101100.06;6128691;22;102136;-56
2023/02/22 00:33:17;;;;;;;5.80;3.27;;;11.10;99.90;;;11.75;61.92;101103.38;6115513;22;98609;-57
2023/02/22 00:35:44;;;;;;;5.57;2.80;;;11.20;99.90;;;11.88;62.34;101098.56;6120225;22;97677;-55
2023/02/22 00:38:12;;;;;;;8.70;3.60;;;11.30;99.90;;;11.63;60.96;101099.34;6122042;22;97481;-59
2023/02/22 00:40:39;;;;;;;11.13;4.03;;;11.20;99.90;;;11.56;61.46;101095.16;6119288;22;98097;-60
2023/02/22 00:43:05;;;;;;;7.40;3.87;;;11.10;99.90;;;11.53;62.48;101094.41;6123942;22;98991;-58
2023/02/22 00:45:34;;;;;;;7.97;3.40;;;11.00;99.90;;;11.45;61.53;101099.97;6121995;22;97399;-54
2023/02/22 00:48:02;;;;;;;7.50;3.13;;;10.90;99.90;;;11.39;62.55;101097.50;6125917;22;97947;-56
2023/02/22 00:50:30;;;;;;;7.10;3.53;;;10.90;99.90;;;11.36;63.43;101091.47;6118566;22;98303;-59
2023/02/22 00:52:58;;;;;;;8.23;4.00;;;10.90;99.90;;;11.41;63.12;101087.75;6125717;22;97629;-53
2023/02/22 00:55:30;;;;;;;8.77;3.60;;;10.90;99.90;;;11.53;63.10;101087.34;6123336;22;97761;-57
2023/02/22 00:57:57;;;;;;;8.87;4.00;;;11.00;99.90;;;11.47;62.81;101082.28;6092567;22;97454;-59
2023/02/22 01:00:30;;;;;;;8.67;4.43;;;10.90;99.90;;;11.49;62.14;101085.72;6105070;22;100755;-52
2023/02/22 01:02:56;;;;;;;8.73;3.50;;;11.00;99.90;;;11.52;62.29;101082.13;6144123;22;101055;-51
2023/02/22 01:05:28;;;;;;;9.20;4.07;;;10.90;99.90;;;11.49;62.87;101083.09;6149314;22;97275;-55
2023/02/22 01:07:56;;;;;;;13.70;4.30;;;11.00;99.90;;;11.58;63.22;101077.50;6143790;22;97111;-59
2023/02/22 01:10:25;;;;;;;7.77;2.97;;;11.00;99.90;;;11.81;62.72;101068.81;6149002;22;98024;-55
2023/02/22 01:12:53;;;;;;;7.63;3.57;;;11.30;99.90;;;11.84;62.04;101067.84;6117935;22;101841;-53
2023/02/22 01:15:22;;;;;;;8.00;4.23;;;11.30;99.90;;;11.74;61.50;101056.72;6150566;22;97132;-55
2023/02/22 01:17:52;;;;;;;8.83;4.93;;;11.20;99.90;;;11.72;61.89;101062.97;6144179;22;96910;-55
2023/02/22 01:20:27;;;;;;;8.40;3.10;;;11.20;99.90;;;11.60;61.15;101059.81;6121300;22;97382;-54
2023/02/22 01:22:57;;;;;;;7.53;3.67;;;11.10;99.90;;;11.54;62.66;101059.16;6145285;22;101182;-55
2023/02/22 01:25:29;;;;;;;7.70;3.30;;;11.00;99.90;;;11.36;61.44;101057.97;6150444;22;97152;-57
2023/02/22 01:27:57;;;;;;;8.57;3.47;;;10.90;99.90;;;11.28;63.00;101057.34;6145141;22;98974;-57
2023/02/22 01:30:33;;;;;;;6.47;3.50;;;10.80;99.90;;;11.22;62.81;101055.78;6149821;22;98458;-55
2023/02/22 01:33:05;;;;;;;5.30;2.60;;;10.80;99.90;;;11.28;64.20;101054.72;6144190;22;102047;-53
2023/02/22 01:35:35;;;;;;;8.37;3.53;;;10.80;99.90;;;11.23;63.21;101046.09;6119100;22;97326;-60
2023/02/22 01:38:01;;;;;;;5.47;2.67;;;10.80;99.90;;;11.08;62.33;101043.94;6150915;22;97310;-53
2023/02/22 01:40:35;;;;;;;5.17;3.03;;;10.70;99.90;;;11.19;64.11;101041.81;6144389;22;97163;-49
2023/02/22 01:43:13;;;;;;;7.90;3.80;;;10.70;99.90;;;11.14;63.65;101035.81;6150156;22;97659;-54
2023/02/22 01:45:56;;;;;;;7.03;3.03;;;10.70;99.90;;;10.99;62.04;101042.44;6145215;22;97375;-58
2023/02/22 01:48:43;;;;;;;7.77;3.63;;;10.60;99.90;;;10.90;63.30;101040.97;6147400;22;97332;-48
2023/02/22 01:51:21;;;;;;;9.00;3.93;;;10.50;99.90;;;10.84;63.44;101030.56;6145968;22;101501;-52
2023/02/22 01:53:57;;;;;;;6.67;3.00;;;10.40;99.90;;;10.86;64.59;101030.56;6119019;22;97412;-56
2023/02/22 01:56:26;;;;;;;8.50;3.60;;;10.40;99.90;;;10.89;64.53;101028.69;6147941;22;97445;-55
2023/02/22 01:58:58;;;;;;;8.87;3.80;;;10.40;99.90;;;10.82;63.62;101031.53;6145100;22;97098;-53
2023/02/22 02:01:25;;;;;;;6.03;3.37;;;10.40;99.90;;;10.75;64.21;101025.59;6122210;22;97051;-52
2023/02/22 02:03:59;;;;;;;5.53;2.90;;;10.30;99.90;;;10.73;64.17;101016.88;6145656;22;100546;-50
2023/02/22 02:06:30;;;;;;;10.47;4.70;;;10.30;99.90;;;10.65;64.70;101018.88;6123164;22;97055;-49
2023/02/22 02:09:24;;;;;;;7.97;4.03;;;10.20;99.90;;;10.60;64.29;101016.38;6143127;22;97458;-53
2023/02/22 02:11:50;;;;;;;5.57;2.97;;;10.20;99.90;;;10.54;64.71;101016.53;6145151;22;100459;-51
2023/02/22 02:14:16;;;;;;;7.90;3.33;;;10.20;99.90;;;10.65;65.21;101016.22;6148501;22;98112;-47
2023/02/22 02:16:50;;;;;;;6.47;3.20;;;10.20;99.90;;;10.70;65.86;101006.38;6144072;22;97390;-57
2023/02/22 02:19:25;;;;;;;8.03;3.87;;;10.30;99.90;;;10.77;64.46;101007.94;6122367;22;97363;-53
2023/02/22 02:22:15;;;;;;;9.53;4.13;;;10.30;99.90;;;10.69;64.45;101004.66;6143111;22;97868;-56
2023/02/22 02:25:27;;;;;;;8.20;3.90;;;10.30;99.90;;;10.71;63.99;101002.88;6141425;22;97988;-50
2023/02/22 02:28:11;;;;;;;5.13;3.33;;;10.30;99.90;;;10.63;64.35;101004.84;6145544;22;97388;-51
2023/02/22 02:30:51;;;;;;;7.40;3.47;;;10.20;99.90;;;10.68;65.18;101002.94;6145940;22;97231;-49
2023/02/22 02:33:50;;;;;;;7.53;3.70;;;10.20;99.90;;;10.66;63.44;100999.47;6149494;22;97137;-54
2023/02/22 02:36:51;;;;;;;7.43;3.57;;;10.30;99.90;;;10.67;63.52;100998.56;6145537;22;102635;-54
2023/02/22 02:39:40;;;;;;;8.57;3.93;;;10.30;99.90;;;10.54;64.12;100990.16;6118329;22;98591;-57
2023/02/22 02:42:10;;;;;;;6.27;3.13;;;10.20;99.90;;;10.41;63.53;101000.25;6119965;22;103314;-52
2023/02/22 02:44:54;;;;;;;6.87;2.97;;;10.10;99.90;;;10.31;63.81;100998.78;6143918;22;98732;-53
2023/02/22 02:47:27;;;;;;;6.17;3.10;;;10.00;99.90;;;10.20;64.44;100990.25;6121967;22;97496;-55
2023/02/22 02:50:18;;;;;;;5.50;2.77;;;9.90;99.90;;;10.11;64.78;100993.16;6119435;22;97651;-54
2023/02/22 02:52:45;;;;;;;6.80;2.83;;;9.80;99.90;;;10.08;65.18;100982.69;6145737;22;97274;-53
2023/02/22 02:55:13;;;;;;;6.07;3.23;;;9.80;99.90;;;10.10;65.84;100987.03;6147574;22;97952;-59
2023/02/22 02:57:39;;;;;;;8.07;3.83;;;9.80;99.90;;;10.04;64.32;100983.72;6142822;22;99426;-53
2023/02/22 03:00:23;;;;;;;6.73;3.33;;;9.70;99.90;;;10.01;65.32;100982.03;6148916;22;97353;-53
2023/02/22 03:03:20;;;;;;;5.17;2.67;;;9.70;99.90;;;9.94;64.98;100983.09;6144662;22;97438;-51
2023/02/22 03:05:53;;;;;;;5.97;2.63;;;9.60;99.90;;;9.94;65.55;100976.97;6143366;22;98853;-55
2023/02/22 03:08:42;;;;;;;7.20;3.30;;;9.60;99.90;;;9.95;65.95;100970.78;6121017;22;97564;-50
2023/02/22 03:11:19;;;;;;;8.17;3.87;;;9.60;99.90;;;9.98;65.37;100975.94;6146500;22;97093;-50
2023/02/22 03:13:59;;;;;;;6.30;3.57;;;9.70;99.90;;;9.96;64.98;100969.88;6117473;22;98594;-56
2023/02/22 03:16:45;;;;;;;7.73;3.20;;;9.70;99.90;;;9.93;65.17;100976.09;6123668;22;97042;-57
2023/02/22 03:19:24;;;;;;;6.40;3.60;;;9.70;99.90;;;9.91;65.29;100977.91;6143169;22;99971;-52
2023/02/22 03:22:17;;;;;;;9.97;3.77;;;9.70;99.90;;;9.90;65.40;100975.31;6145560;22;97584;-55
2023/02/22 03:25:07;;;;;;;8.87;2.97;;;9.70;99.90;;;9.83;64.57;100970.19;6145835;22;97285;-53
2023/02/22 03:27:54;;;;;;;4.93;2.77;;;9.60;99.90;;;9.83;66.17;100978.09;6144177;22;97548;-55
2023/02/22 03:30:43;;;;;;;5.23;3.23;;;9.60;99.90;;;9.78;65.16;100980.00;6125028;22;97146;-53
2023/02/22 03:33:32;;;;;;;6.10;3.30;;;9.50;99.90;;;9.74;65.55;100975.75;6145603;22;97216;-54
2023/02/22 03:36:08;;;;;;;6.50;3.20;;;9.50;99.90;;;9.73;66.21;100979.28;6118462;22;97306;-48
2023/02/22 03:38:37;;;;;;;7.67;3.27;;;9.50;99.90;;;9.68;65.92;100985.56;6144913;22;97927;-54
2023/02/22 03:41:05;;;;;;;6.00;3.10;;;9.50;99.90;;;9.68;66.42;100978.53;6121778;22;97278;-54
2023/02/22 03:43:38;;;;;;;7.87;3.43;;;9.40;99.90;;;9.77;65.89;100973.00;6118559;22;97394;-57
2023/02/22 03:46:06;;;;;;;4.27;2.93;;;9.50;99.90;;;9.73;65.56;100974.00;6122598;22;97360;-56
2023/02/22 03:48:53;;;;;;;5.10;3.07;;;9.50;99.90;;;9.69;64.28;100972.38;6117794;22;97210;-55
2023/02/22 03:51:20;;;;;;;6.53;3.70;;;9.40;99.90;;;9.66;65.45;100969.81;6149237;22;98366;-53
2023/02/22 03:53:49;;;;;;;6.90;3.13;;;9.40;99.90;;;9.63;65.06;100967.25;6119619;22;97015;-50
2023/02/22 03:56:25;;;;;;;6.40;3.67;;;9.30;99.90;;;9.65;65.46;100970.72;6149924;22;97808;-52
2023/02/22 03:58:51;;;;;;;5.57;3.30;;;9.30;99.90;;;9.64;65.58;100968.97;6116751;22;97424;-53
2023/02/22 04:01:18;;;;;;;4.20;2.53;;;9.30;99.90;;;9.63;64.18;100972.53;6122327;22;104219;-53
2023/02/22 04:03:45;;;;;;;6.20;3.07;;;9.30;99.90;;;9.58;64.54;100974.44;6145213;22;97402;-54
2023/02/22 04:06:11;;;;;;;5.93;3.20;;;9.30;99.90;;;9.55;65.35;100971.88;6149487;22;97510;-54
2023/02/22 04:08:37;;;;;;;5.70;3.60;;;9.20;99.90;;;9.62;65.83;100970.81;6145674;22;96799;-55
2023/02/22 04:11:02;;;;;;;5.43;2.93;;;9.30;99.90;;;9.66;65.57;100972.44;6148907;22;97614;-54
2023/02/22 04:13:28;;;;;;;4.93;2.90;;;9.30;99.90;;;9.63;64.55;100972.53;6145854;22;98596;-55
2023/02/22 04:15:54;;;;;;;5.13;3.17;;;9.30;99.90;;;9.61;64.12;100969.06;6150527;22;97266;-51
2023/02/22 04:18:20;;;;;;;5.73;2.97;;;9.30;99.90;;;9.56;63.92;100959.56;6148802;22;97490;-50
2023/02/22 04:20:46;;;;;;;5.80;3.07;;;9.20;99.90;;;9.50;64.69;100968.47;6145834;22;97068;-55
2023/02/22 04:23:12;;;;;;;5.60;3.30;;;9.20;99.90;;;9.46;64.19;100964.22;6149432;22;97289;-56
2023/02/22 04:25:38;;;;;;;3.97;2.57;;;9.20;99.90;;;9.38;63.93;100963.53;6144689;22;97413;-51
2023/02/22 04:28:04;;;;;;;4.00;3.07;;;9.10;99.90;;;9.33;65.42;100968.06;6149147;22;97475;-54
2023/02/22 04:30:29;;;;;;;7.77;3.63;;;9.00;99.90;;;9.29;64.86;100964.66;6145564;22;98423;-53
2023/02/22 04:32:56;;;;;;;5.53;2.77;;;9.00;99.90;;;9.30;65.67;100973.41;6149903;22;97025;-54
2023/02/22 04:35:22;;;;;;;5.30;2.93;;;9.00;99.90;;;9.26;65.56;100967.38;6123760;22;97368;-49
2023/02/22 04:37:48;;;;;;;5.93;3.43;;;9.00;99.90;;;9.25;65.24;100955.94;6145792;22;102333;-45
2023/02/22 04:40:16;;;;;;;7.57;3.40;;;9.00;99.90;;;9.27;66.34;100968.22;6149854;22;101975;-54
2023/02/22 04:42:42;;;;;;;6.43;3.73;;;9.00;99.90;;;9.29;66.25;100956.75;6143963;22;98192;-53
2023/02/22 04:45:09;;;;;;;5.10;2.73;;;9.10;99.90;;;9.28;65.30;100964.69;6147828;22;107245;-49
2023/02/22 04:47:36;;;;;;;6.63;3.23;;;9.10;99.90;;;9.31;65.81;100959.34;6143234;22;97097;-51
2023/02/22 04:50:08;;;;;;;9.47;3.73;;;9.10;99.90;;;9.30;65.90;100957.63;6148930;22;96854;-50
2023/02/22 04:52:34;;;;;;;6.87;2.97;;;9.10;99.90;;;9.34;65.81;100954.84;6146058;22;97277;-54
2023/02/22 04:54:59;;;;;;;6.90;3.00;;;9.10;99.90;;;9.39;66.00;100960.00;6148192;22;97821;-56
2023/02/22 04:57:26;;;;;;;6.10;3.70;;;9.10;99.90;;;9.41;65.84;100960.84;6148477;22;97127;-47
2023/02/22 04:59:52;;;;;;;8.00;3.93;;;9.20;99.90;;;9.52;67.15;100954.38;6143838;22;97386;-49
2023/02/22 05:02:18;;;;;;;7.37;3.27;;;9.30;99.90;;;9.53;64.72;100950.81;6149356;22;98665;-56
2023/02/22 05:04:44;;;;;;;6.47;3.27;;;9.30;99.90;;;9.58;65.62;100945.47;6144013;22;107951;-54
2023/02/22 05:07:11;;;;;;;6.17;3.57;;;9.30;99.90;;;9.70;65.61;100953.03;6148258;22;99151;-53
2023/02/22 05:09:37;;;;;;;5.47;3.13;;;9.40;99.90;;;9.65;64.02;100948.78;6142553;22;97173;-57
2023/02/22 05:12:03;;;;;;;4.83;3.37;;;9.40;99.90;;;9.67;64.50;100947.81;6146322;22;97320;-55
2023/02/22 05:14:29;;;;;;;7.13;3.40;;;9.30;99.90;;;9.77;65.43;100943.19;6145446;22;97400;-56
2023/02/22 05:16:56;;;;;;;8.20;3.93;;;9.40;99.90;;;9.80;64.47;100943.09;6138271;22;97203;-49
2023/02/22 05:19:23;;;;;;;5.47;3.30;;;9.50;99.90;;;9.84;65.03;100945.59;6122360;22;97442;-56
2023/02/22 05:21:49;;;;;;;7.37;3.80;;;9.50;99.90;;;9.95;66.38;100941.78;6145617;22;97055;-54
2023/02/22 05:24:15;;;;;;;7.43;3.43;;;9.60;99.90;;;10.14;66.14;100943.00;6148452;22;96811;-48
2023/02/22 05:26:45;;;;;;;7.13;3.33;;;9.70;99.90;;;10.02;63.08;100938.09;6146300;22;97285;-51
2023/02/22 05:29:12;;;;;;;5.20;3.33;;;9.60;99.90;;;10.10;65.40;100936.06;6150410;22;97515;-56
2023/02/22 05:31:38;;;;;;;6.70;3.67;;;9.60;99.90;;;10.17;63.85;100942.91;6146484;22;100932;-48
2023/02/22 05:34:03;;;;;;;6.63;3.60;;;9.60;99.90;;;10.15;64.70;100934.19;6150489;22;97223;-48
2023/02/22 05:36:29;;;;;;;5.03;2.50;;;9.60;99.90;;;10.33;63.52;100928.38;6146034;22;97378;-56
2023/02/22 05:38:55;;;;;;;4.37;2.40;;;9.80;99.90;;;10.45;63.77;100929.78;6150238;22;97497;-54
2023/02/22 05:41:21;;;;;;;4.43;3.10;;;9.80;99.90;;;10.34;61.49;100919.56;6150384;22;101751;-49
2023/02/22 05:43:47;;;;;;;6.17;2.60;;;9.80;99.90;;;10.31;62.74;100914.41;6146107;22;97260;-53
2023/02/22 05:46:14;;;;;;;5.93;2.50;;;9.70;99.90;;;10.36;63.48;100920.38;6150674;22;97161;-55
2023/02/22 05:48:39;;;;;;;2.83;1.90;;;9.70;99.90;;;10.54;65.81;100918.06;6145682;22;101528;-48
2023/02/22 05:51:06;;;;;;;4.87;2.60;;;9.80;99.90;;;10.51;63.36;100911.13;6149591;22;96789;-57
2023/02/22 05:53:32;;;;;;;3.70;2.43;;;9.80;99.90;;;10.43;61.56;100908.75;6147466;22;97067;-55
2023/02/22 05:55:58;;;;;;;6.83;2.53;;;9.80;99.90;;;10.47;62.56;100916.56;6148409;22;114195;-54
2023/02/22 05:58:24;;;;;;;5.50;3.00;;;9.80;99.90;;;10.29;59.63;100905.66;6149832;22;97200;-56
2023/02/22 06:00:49;;;;;;;5.60;2.37;;;9.70;99.90;;;10.23;62.84;100905.84;6145044;22;97211;-55
2023/02/22 06:03:15;;;;;;;3.67;2.13;;;9.60;99.90;;;10.27;63.80;100909.22;6150709;22;96842;-54
2023/02/22 06:05:41;;;;;;;5.10;2.63;;;9.60;99.90;;;10.29;64.55;100905.66;6145679;22;97565;-55
2023/02/22 06:08:08;;;;;;;4.77;2.63;;;9.60;99.90;;;10.35;63.16;100904.59;6149241;22;106041;-56
2023/02/22 06:10:34;;;;;;;4.83;2.33;;;9.70;99.90;;;10.43;64.10;100898.19;6145166;22;111249;-52
2023/02/22 06:13:01;;;;;;;3.40;2.30;;;9.70;99.90;;;10.64;64.75;100901.06;6124366;22;97407;-50
2023/02/22 06:15:27;;;;;;;5.07;2.43;;;9.80;99.90;;;10.80;63.04;100897.00;6150913;22;97942;-58
2023/02/22 06:17:56;;;;;;;3.30;2.33;;;10.00;99.90;;;10.86;62.98;100895.97;6144555;22;121574;-55
2023/02/22 06:20:25;;;;;;;3.67;2.70;;;10.10;99.90;;;10.81;60.95;100897.88;6150013;22;97117;-51
2023/02/22 06:22:54;;;;;;;3.63;2.23;;;10.00;99.90;;;10.70;60.98;100901.75;6144280;22;97405;-58
2023/02/22 06:25:31;;;;;;;5.07;2.67;;;9.90;99.90;;;10.73;60.24;100906.91;6148390;22;97642;-57
2023/02/22 06:27:59;;;;;;;4.90;2.43;;;9.90;99.90;;;10.81;62.34;100893.44;6141916;22;101009;-55
2023/02/22 06:30:26;;;;;;;5.23;2.47;;;10.00;99.90;;;10.95;63.64;100899.13;6147503;22;97059;-56
2023/02/22 06:32:52;;;;;;;2.63;1.43;;;10.10;99.90;;;11.12;63.18;100893.28;6142022;22;96865;-55
2023/02/22 06:35:19;;;;;;;4.20;2.43;;;10.30;99.90;;;11.27;62.33;100887.47;6148334;22;97334;-58
2023/02/22 06:37:44;;;;;;;3.33;2.27;;;10.50;99.90;;;11.32;60.68;100890.84;6145843;22;97772;-55
2023/02/22 06:40:12;;;;;;;4.33;2.43;;;10.50;99.90;;;11.30;58.72;100897.09;6148569;22;96810;-54
2023/02/22 06:42:39;;;;;;;3.33;2.40;;;10.50;99.90;;;11.28;59.65;100888.34;6144236;22;97362;-54
2023/02/22 06:45:06;;;;;;;6.30;3.03;;;10.50;99.90;;;11.18;58.70;100893.09;6149081;22;97670;-59
2023/02/22 06:47:31;;;;;;;3.97;2.37;;;10.40;99.90;;;10.91;57.53;100889.59;6144706;22;96871;-54
2023/02/22 06:49:59;;;;;;;3.73;2.07;;;10.10;99.90;;;10.86;60.31;100898.59;6149239;22;98463;-56
2023/02/22 06:52:25;;;;;;;4.97;2.53;;;10.10;99.90;;;10.97;61.73;100893.81;6121907;22;97092;-55
2023/02/22 06:54:52;;;;;;;5.97;2.70;;;10.20;99.90;;;11.00;61.13;100894.59;6117850;22;99953;-52
2023/02/22 06:57:18;;;;;;;4.40;2.80;;;10.20;99.90;;;11.06;61.08;100890.00;6148833;22;99192;-47
2023/02/22 06:59:43;;;;;;;4.93;3.13;;;10.30;99.90;;;10.97;58.02;100884.09;6142626;22;101376;-52
2023/02/22 07:02:13;;;;;;;13.97;3.20;;;10.20;99.90;;;10.92;61.45;100887.81;6149863;22;96923;-53
2023/02/22 07:04:39;;;;;;;5.13;2.73;;;10.20;99.90;;;11.02;59.99;100887.47;6146150;22;111731;-55
2023/02/22 07:07:05;;;;;;;5.07;2.87;;;10.30;99.90;;;10.99;60.38;100882.31;6151558;22;97027;-55
2023/02/22 07:09:31;;;;;;;5.90;3.43;;;10.20;99.90;;;11.06;60.58;100879.44;6145978;22;106805;-52
2023/02/22 07:11:57;;;;;;;5.87;2.83;;;10.30;99.90;;;10.93;59.14;100877.22;6150391;22;96671;-57
2023/02/22 07:14:22;;;;;;;6.17;3.30;;;10.30;99.90;;;10.69;58.64;100881.50;6148356;22;97878;-55
2023/02/22 07:16:48;;;;;;;7.13;3.43;;;10.10;99.90;;;10.31;57.68;100884.53;6145432;22;104890;-55
2023/02/22 07:19:14;;;;;;;6.50;3.57;;;9.80;99.90;;;10.06;59.19;100885.22;6151450;22;96750;-52
2023/02/22 07:21:40;;;;;;;8.00;3.40;;;9.60;99.90;;;9.86;60.25;100881.47;6146575;22;97024;-53
2023/02/22 07:24:06;;;;;;;5.77;3.30;;;9.40;99.90;;;9.69;61.26;100890.72;6149132;22;102034;-55
2023/02/22 07:26:39;;;;;;;7.00;3.47;;;9.30;99.90;;;9.51;61.82;100883.31;6146711;22;97843;-53
2023/02/22 07:29:05;;;;;;;5.30;3.30;;;9.20;99.90;;;9.38;62.89;100884.53;6149773;22;99522;-54
2023/02/22 07:31:38;;;;;;;7.53;3.57;;;9.10;99.90;;;9.28;63.44;100877.81;6145149;22;97246;-54
2023/02/22 07:34:04;;;;;;;5.40;3.47;;;9.00;99.90;;;9.19;63.92;100877.16;6148225;22;97375;-50
2023/02/22 07:36:29;;;;;;;8.67;4.03;;;9.00;99.90;;;9.12;64.48;100883.50;6146394;22;98245;-54
2023/02/22 07:38:57;;;;;;;4.63;2.53;;;8.90;99.90;;;9.43;68.30;100877.41;6139350;22;98938;-47
2023/02/22 07:41:22;;;;;;;7.63;3.33;;;9.10;99.90;;;9.56;64.87;100875.31;6117810;22;97121;-54
2023/02/22 07:43:48;;;;;;;9.10;4.00;;;9.30;99.90;;;9.52;63.88;100880.63;6142652;22;118148;-51
2023/02/22 07:46:14;;;;;;;5.77;3.50;;;9.30;99.90;;;9.61;65.03;100881.28;6145062;22;104708;-56
2023/02/22 07:48:40;;;;;;;8.83;3.57;;;9.30;99.90;;;9.67;64.16;100879.34;6147172;22;97310;-56
2023/02/22 07:51:06;;;;;;;8.40;4.00;;;9.40;99.90;;;9.72;64.66;100872.19;6146773;22;108092;-49
2023/02/22 07:53:32;;;;;;;8.93;4.17;;;9.40;99.90;;;9.77;64.88;100874.69;6145003;22;97468;-57
2023/02/22 07:56:01;;;;;;;15.23;4.20;;;9.50;99.90;;;9.79;65.00;100881.63;6146712;22;97528;-51
2023/02/22 07:58:28;;;;;;;6.97;3.80;;;9.50;99.90;;;9.97;66.39;100874.94;6149565;22;97384;-54
2023/02/22 08:00:55;;;;;;;5.27;3.23;;;9.60;99.90;;;10.09;66.26;100865.81;6145542;22;97065;-53
2023/02/22 08:03:23;;;;;;;7.53;4.43;;;9.70;99.90;;;10.20;65.79;100861.09;6145132;22;97359;-55
2023/02/22 08:05:53;;;;;;;7.40;3.93;;;9.80;99.90;;;10.22;64.68;100861.94;6142226;22;96582;-50
2023/02/22 08:08:19;;;;;;;5.77;3.53;;;9.90;99.90;;;10.21;64.74;100857.56;6142850;22;97130;-56
2023/02/22 08:10:46;;;;;;;9.07;4.33;;;9.90;99.90;;;10.23;64.94;100861.03;6139200;22;97082;-58
2023/02/22 08:13:12;;;;;;;7.50;3.87;;;10.00;99.90;;;10.25;64.86;100856.56;6118065;22;97808;-55
2023/02/22 08:15:40;;;;;;;8.00;4.20;;;10.00;99.90;;;10.30;65.15;100859.94;6138793;22;97814;-56
2023/02/22 08:18:15;;;;;;;7.00;2.93;;;10.00;99.90;;;10.40;65.66;100856.06;6143976;22;98807;-52
2023/02/22 08:20:43;;;;;;;9.37;4.80;;;10.10;99.90;;;10.39;64.95;100854.34;6141364;22;97390;-53
2023/02/22 08:23:12;;;;;;;7.70;4.97;;;10.20;99.90;;;10.46;65.30;100848.91;6125647;22;97238;-54
2023/02/22 08:25:38;;;;;;;8.83;4.97;;;10.20;99.90;;;10.68;64.80;100847.28;6141784;22;97280;-55
2023/02/22 08:28:11;;;;;;;7.10;3.93;;;10.40;99.90;;;10.73;64.96;100848.00;6122363;22;97209;-58
2023/02/22 08:30:38;;;;;;;7.97;4.10;;;10.40;99.90;;;10.74;64.70;100849.72;6119068;22;97077;-59
2023/02/22 08:33:04;;;;;;;6.23;3.43;;;10.40;99.90;;;10.75;64.63;100846.16;6124604;22;97745;-57
2023/02/22 08:35:32;;;;;;;6.37;3.77;;;10.50;99.90;;;10.84;64.71;100851.13;6120074;22;97598;-55
2023/02/22 08:38:04;;;;;;;6.57;3.87;;;10.60;99.90;;;10.85;64.45;100846.72;6118731;22;97021;-55
2023/02/22 08:40:34;;;;;;;6.27;3.67;;;10.60;99.90;;;10.86;64.43;100844.03;6121680;22;97284;-57
2023/02/22 08:43:00;;;;;;;5.90;3.20;;;10.60;99.90;;;10.92;64.48;100833.25;6118005;22;101759;-56
2023/02/22 08:45:27;;;;;;;6.67;3.57;;;10.70;99.90;;;10.94;64.86;100836.72;6122747;22;108961;-56
2023/02/22 08:47:53;;;;;;;3.43;1.90;;;10.70;99.90;;;11.18;63.67;100839.44;6120942;22;97701;-55
2023/02/22 08:50:25;;;;;;;8.07;4.47;;;10.90;99.90;;;11.34;63.52;100830.03;6121417;22;96539;-57
2023/02/22 08:52:53;;;;;;;4.10;2.33;;;11.10;99.90;;;11.58;62.12;100834.44;6119140;22;98005;-55
2023/02/22 08:55:21;;;;;;;9.30;3.70;;;11.30;99.90;;;11.60;62.47;100829.97;6119674;22;98086;-58
2023/02/22 08:57:47;;;;;;;6.80;3.67;;;11.40;99.90;;;11.75;62.50;100820.59;6116007;22;97157;-57
2023/02/22 09:00:14;;;;;;;7.00;3.97;;;11.50;99.90;;;11.91;61.58;100821.75;6123351;22;97515;-59
2023/02/22 09:02:40;;;;;;;7.20;3.33;;;11.70;99.90;;;12.07;61.08;100816.72;6114869;22;97511;-56
2023/02/22 09:05:06;;;;;;;4.43;2.27;;;11.80;99.90;;;12.28;59.98;100815.00;6121435;22;97270;-58
2023/02/22 09:07:32;;;;;;;3.50;2.57;;;12.00;99.90;;;12.50;59.14;100812.38;6119779;22;97441;-56
2023/02/22 09:09:58;;;;;;;5.13;3.33;;;12.30;99.90;;;12.62;59.77;100819.81;6117166;22;101101;-58
2023/02/22 09:12:24;;;;;;;2.40;1.63;;;12.40;99.90;;;12.67;58.98;100812.53;6119886;22;97404;-53
2023/02/22 09:14:50;;;;;;;6.40;3.07;;;12.40;99.90;;;12.78;58.52;100804.16;6118098;22;109713;-56
2023/02/22 09:17:16;;;;;;;3.90;2.40;;;12.60;99.90;;;13.01;57.75;100805.78;6119122;22;97374;-52
2023/02/22 09:19:42;;;;;;;3.03;1.77;;;12.90;99.90;;;13.21;57.09;100807.63;6116891;22;97440;-58
2023/02/22 09:22:07;;;;;;;2.23;1.50;;;13.20;99.90;;;13.45;56.34;100801.22;6121234;22;98911;-56
2023/02/22 09:24:33;;;;;;;8.60;3.33;;;13.50;99.90;;;13.50;56.19;100793.06;6116955;22;97571;-58
2023/02/22 09:26:59;;;;;;;9.70;4.10;;;13.50;99.90;;;13.53;56.57;100798.22;6090862;22;97576;-58
2023/02/22 09:29:26;;;;;;;5.43;3.60;;;13.50;99.90;;;13.50;56.45;100801.03;6120012;22;98101;-55
2023/02/22 09:31:54;;;;;;;10.23;4.90;;;13.40;99.90;;;13.43;56.89;100807.50;6117276;22;97674;-51
2023/02/22 09:34:28;;;;;;;5.27;3.30;;;13.30;99.90;;;13.33;57.13;100802.63;6119891;22;97325;-55
2023/02/22 09:36:56;;;;;;;5.67;3.20;;;13.10;99.90;;;13.21;58.14;100818.22;6119205;22;98563;-53
2023/02/22 09:39:22;;;;;;;6.30;3.87;;;13.00;99.90;;;13.01;59.04;100808.44;6120239;22;97586;-56
2023/02/22 09:42:12;;;;;;;7.73;3.73;;;12.90;99.90;;;12.98;58.85;100813.88;6118880;22;97890;-58
2023/02/22 09:45:18;;;;;;;6.37;3.50;;;12.80;99.90;;;12.85;59.63;100804.72;6115787;22;98575;-56
2023/02/22 09:47:48;;;;;;;6.23;2.97;;;12.70;99.90;;;12.81;59.41;100804.00;6112320;22;97304;-60
2023/02/22 09:50:21;;;;;;;6.57;4.10;;;12.70;99.90;;;12.80;60.34;100800.50;6122222;22;97341;-51
2023/02/22 09:53:03;;;;;;;8.00;4.73;;;12.70;99.90;;;12.79;60.79;100812.03;6085954;22;98094;-54
2023/02/22 09:55:51;;;;;;;9.57;4.40;;;12.70;99.90;;;12.84;59.22;100806.50;6108928;22;97539;-54
2023/02/22 09:58:47;;;;;;;6.97;3.73;;;12.70;99.90;;;12.85;59.32;100810.03;6135890;22;96907;-54
2023/02/22 10:01:38;;;;;;;5.90;3.13;;;12.70;99.90;;;12.88;60.10;100809.91;6103306;22;96581;-52
2023/02/22 10:04:18;;;;;;;10.00;4.70;;;12.80;99.90;;;12.87;59.60;100802.88;6119264;22;102692;-52
2023/02/22 10:07:12;;;;;;;9.13;5.00;;;12.80;99.90;;;12.95;59.28;100806.94;6119173;22;102251;-55
2023/02/22 10:09:42;;;;;;;6.10;3.57;;;12.80;99.90;;;12.92;60.41;100807.06;6149137;22;96913;-54
2023/02/22 10:12:30;;;;;;;7.03;3.70;;;12.80;99.90;;;12.93;60.02;100802.63;6146253;22;97139;-51
2023/02/22 10:15:24;;;;;;;10.10;4.10;;;12.90;99.90;;;13.01;59.35;100800.50;6120097;22;97249;-53
2023/02/22 10:18:37;;;;;;;7.00;4.40;;;13.00;99.90;;;13.17;57.69;100790.97;6148361;22;97670;-53
2023/02/22 10:21:16;;;;;;;7.80;3.50;;;13.10;99.90;;;13.23;58.99;100796.03;6147647;22;98216;-56
2023/02/22 10:23:57;;;;;;;7.00;3.97;;;13.20;99.90;;;13.26;59.00;100795.88;6118827;22;97075;-55
2023/02/22 10:26:31;;;;;;;8.93;4.03;;;13.20;99.90;;;13.28;59.16;100794.00;6151171;22;98503;-57
2023/02/22 10:29:35;;;;;;;2.83;1.73;;;13.30;99.90;;;13.52;56.70;100788.56;6136578;22;97327;-57
2023/02/22 10:32:04;;;;;;;7.13;3.37;;;13.40;99.90;;;13.60;56.46;100789.94;6122651;22;97512;-51